Hampden, ME

3:15 PM EDT on October 20, 2014 (GMT -0400)
Hermon Center | Change Station
CLOSE
Current Station
Personal Weather Station
Location: Hermon, ME
Elevation: 145 ft
Nearby Weather Stations

Elev 145 ft 44.81 °N, 68.91 °W | Updated 5 seconds ago

Clear
Clear
52.4 °F
Feels Like 52.4 °F
N
1.0
Wind Variable Wind from SW
Gusts 10.0 mph

Today
High -- | Low -- °F
--% Chance of Precip.
Yesterday
High -- | Low -- °F
Precip. -- in
6:57 AM 5:42 PM
Waning Crescent, 9% visible
Pressure 29.91 in
Visibility 10.0 miles
Clouds Few 20000 ft
Dew Point 31 °F
Humidity 44%
Rainfall 0.00 in
Snow Depth Not available.
UV 2 out of 12
Pollen .30 out of 12
PM2.5 Good
Flu Activity Sporadic
METAR KBGR 201853Z 28010KT 10SM FEW200 10/M06 A2990 RMK AO2 SLP126 T01001056 PNO $

More Conditions Fewer Conditions

Pressure 29.91 in
Visibility 10.0 miles
Clouds Few 20000 ft
Dew Point 31 °F
Humidity 44%
Rainfall 0.00 in
Snow Depth Not available.
UV 2 out of 12
Pollen .30 out of 12
PM2.5 Good
Flu Activity Sporadic
METAR KBGR 201853Z 28010KT 10SM FEW200 10/M06 A2990 RMK AO2 SLP126 T01001056 PNO $

More Conditions Fewer Conditions

10-Day Weather Forecast

Almanac

Astronomy

Oct. 20, 2014 Rise Set
Actual Time 6:57 AM EDT 5:42 PM EDT
Civil Twilight 6:27 AM EDT 6:12 PM EDT
Nautical Twilight 5:53 AM EDT 6:46 PM EDT
Astronomical Twilight 5:20 AM EDT 7:20 PM EDT
Moon 3:34 AM EDT 4:10 PM EDT
Length of Visible Light 11h 44m
Length of Day
10h 45m
Waning Crescent, 9% of the Moon is Illuminated
Today
Waning Crescent
Oct 23
New
Oct 30
First Quarter
Nov 6
Full
Nov 14
Last Quarter

Today's Extremes

State Highs State Lows

Community

WunderPhotos

Upload Photos

1,763,468 photos uploaded!

Nearby

Air Quality

  Air Quality AQ Index Pollutant
Yesterday Good
PM2.5
Current Good
PM2.5
Monday Good
OZONE
Monday Good
PM2.5
Tuesday Good
OZONE
Tuesday Good
PM2.5
Wednesday Good
OZONE
Wednesday Good
PM2.5
Thursday Good
OZONE
Thursday Good
PM2.5
Friday Good
OZONE
Friday Good
PM2.5
Saturday Good
OZONE
Saturday Good
PM2.5

Snow Depth

Station Depth Elevation
No new snow has been reported.

Earthquake Activity

City Distance Mag. Time & Date
No recent earthquake activity has been reported nearby.
Minimum magnitude displayed is 2.5.

Coastal Water Temperatures

Place Temperature
Bar Harbor, ME 55.0 °F
Portland, ME 55.9 °F

Nearby Weather Stations